Time;durP1;ratioP1;P1;durP2;ratioP2;P2;SDS_P1;SDS_P2;PMS_P1;PMS_P2;Temp;Humidity;BMP_temperature;BMP_pressure;BME280_temperature;BME280_humidity;BME280_pressure;Samples;Min_cycle;Max_cycle;Signal;HPM_P1;HPM_P2
2024/04/17 00:02:18;;;;;;;4.07;3.63;;;;;;;6.51;100.00;100035.91;5171784;27;20032;-82
2024/04/17 00:04:46;;;;;;;3.65;3.20;;;;;;;6.54;100.00;100039.31;5175728;27;20023;-83
2024/04/17 00:07:11;;;;;;;4.72;3.67;;;;;;;6.54;100.00;100031.53;5197513;27;20488;-83
2024/04/17 00:09:40;;;;;;;4.35;3.30;;;;;;;6.54;100.00;100030.69;5171443;27;20012;-83
2024/04/17 00:12:05;;;;;;;6.93;3.42;;;;;;;6.57;100.00;100038.47;5167539;27;20009;-83
2024/04/17 00:14:34;;;;;;;5.10;4.38;;;;;;;6.57;100.00;100028.94;5198743;27;20097;-83
2024/04/17 00:17:00;;;;;;;5.97;3.40;;;;;;;6.58;100.00;100028.06;5171782;27;20023;-81
2024/04/17 00:19:28;;;;;;;4.45;3.53;;;;;;;6.59;100.00;100029.78;5145799;27;20012;-83
2024/04/17 00:21:54;;;;;;;5.07;3.55;;;;;;;6.58;100.00;100029.78;5225294;27;20020;-82
2024/04/17 00:24:23;;;;;;;4.95;3.20;;;;;;;6.56;100.00;100029.81;5177418;27;20028;-82
2024/04/17 00:26:48;;;;;;;7.90;4.15;;;;;;;6.58;100.00;100022.88;5171713;27;20013;-82
2024/04/17 00:29:16;;;;;;;5.22;3.60;;;;;;;6.58;100.00;100024.59;5171858;27;20095;-83
2024/04/17 00:31:47;;;;;;;5.30;3.63;;;;;;;6.56;100.00;100019.41;5196404;27;20016;-83
2024/04/17 00:34:15;;;;;;;6.03;3.45;;;;;;;6.57;100.00;100022.84;5191202;27;20023;-81
2024/04/17 00:36:41;;;;;;;7.10;4.30;;;;;;;6.60;100.00;100026.31;5193159;27;20020;-82
2024/04/17 00:39:09;;;;;;;6.00;3.92;;;;;;;6.59;100.00;100021.97;5192292;27;20027;-82
2024/04/17 00:41:35;;;;;;;4.18;3.83;;;;;;;6.55;100.00;100016.81;5177038;27;20009;-83
2024/04/17 00:44:04;;;;;;;5.00;3.47;;;;;;;6.53;100.00;100029.81;5193241;27;20008;-85
2024/04/17 00:46:30;;;;;;;7.47;3.40;;;;;;;6.53;100.00;100018.53;5194076;27;20012;-82
2024/04/17 00:48:59;;;;;;;5.63;3.55;;;;;;;6.51;100.00;100028.94;5201130;27;20009;-85
2024/04/17 00:51:24;;;;;;;4.68;3.40;;;;;;;6.46;100.00;100030.69;5176756;27;20048;-82
2024/04/17 00:53:56;;;;;;;5.32;3.28;;;;;;;6.44;100.00;100024.63;5170156;27;20061;-83
2024/04/17 00:56:22;;;;;;;6.88;3.40;;;;;;;6.42;100.00;100024.63;5151558;27;20016;-83
2024/04/17 00:58:51;;;;;;;6.07;3.58;;;;;;;6.35;100.00;100022.91;5195426;27;20016;-82
2024/04/17 01:01:17;;;;;;;8.52;4.22;;;;;;;6.30;100.00;100024.66;5192947;27;20009;-83
2024/04/17 01:03:55;;;;;;;7.88;3.47;;;;;;;6.22;100.00;100022.06;5194388;27;20033;-84
2024/04/17 01:06:25;;;;;;;8.93;4.13;;;;;;;6.15;100.00;100017.72;5151732;27;20528;-84
2024/04/17 01:09:00;;;;;;;4.18;3.35;;;;;;;6.09;100.00;100017.75;5144584;27;20028;-83
2024/04/17 01:11:40;;;;;;;6.20;3.70;;;;;;;6.05;100.00;100019.50;5150701;27;20056;-83
2024/04/17 01:14:10;;;;;;;12.77;4.38;;;;;;;6.05;100.00;100021.22;5193907;27;20036;-84
2024/04/17 01:16:37;;;;;;;6.57;3.50;;;;;;;6.01;100.00;100017.75;5181527;27;20016;-83
2024/04/17 01:19:08;;;;;;;9.07;3.75;;;;;;;6.00;100.00;100029.03;5145451;27;20467;-82
2024/04/17 01:21:33;;;;;;;10.68;3.83;;;;;;;5.97;100.00;100029.84;5214576;27;20036;-82
2024/04/17 01:24:02;;;;;;;9.48;3.88;;;;;;;5.99;100.00;100022.09;5176342;27;20012;-83
2024/04/17 01:26:27;;;;;;;5.78;3.72;;;;;;;6.00;100.00;100023.81;5167396;27;20492;-81
2024/04/17 01:28:56;;;;;;;4.63;3.42;;;;;;;6.05;100.00;100031.59;5198665;27;20008;-82
2024/04/17 01:32:02;;;;;;;11.30;4.43;;;;;;;6.05;100.00;100026.41;5157282;27;20020;-81
2024/04/17 01:34:33;;;;;;;6.05;3.58;;;;;;;6.06;100.00;100034.22;5200891;27;20479;-83
2024/04/17 01:36:59;;;;;;;8.45;3.58;;;;;;;6.08;100.00;100024.69;5173518;27;20027;-84
2024/04/17 01:39:27;;;;;;;5.75;3.60;;;;;;;6.07;100.00;100028.13;5198725;27;20016;-84
2024/04/17 01:41:52;;;;;;;9.82;3.33;;;;;;;6.08;100.00;100023.81;5196509;27;20024;-82
2024/04/17 01:44:22;;;;;;;7.75;3.17;;;;;;;6.10;100.00;100028.16;5173694;27;20016;-84
2024/04/17 01:46:50;;;;;;;8.23;3.90;;;;;;;6.09;100.00;100023.81;5196710;27;21500;-84
2024/04/17 01:49:18;;;;;;;5.80;2.72;;;;;;;6.06;100.00;100029.03;5196801;27;20008;-86
2024/04/17 01:51:44;;;;;;;8.93;3.88;;;;;;;5.99;100.00;100019.50;5176274;27;20087;-82
2024/04/17 01:54:12;;;;;;;6.40;3.65;;;;;;;6.01;100.00;100024.69;5193126;27;20008;-82
2024/04/17 01:56:37;;;;;;;6.30;3.83;;;;;;;5.98;100.00;100020.34;5173348;27;20085;-82
2024/04/17 01:59:05;;;;;;;6.43;3.15;;;;;;;5.93;100.00;100029.84;5175801;27;20020;-82
2024/04/17 02:01:31;;;;;;;6.63;3.13;;;;;;;5.88;100.00;100027.25;5173047;27;20031;-81
2024/04/17 02:04:00;;;;;;;6.68;3.70;;;;;;;5.81;100.00;100030.72;5168498;27;20437;-81
2024/04/17 02:06:26;;;;;;;8.15;3.50;;;;;;;5.75;100.00;100030.69;5169890;27;20024;-82
2024/04/17 02:08:54;;;;;;;4.88;2.70;;;;;;;5.70;100.00;100029.84;5194228;27;20418;-81
2024/04/17 02:11:19;;;;;;;7.55;3.65;;;;;;;5.65;100.00;100032.44;5173479;27;20020;-82
2024/04/17 02:13:48;;;;;;;7.03;3.22;;;;;;;5.63;100.00;100029.84;5178683;27;20005;-82
2024/04/17 02:16:14;;;;;;;6.95;2.80;;;;;;;5.58;100.00;100034.16;5175450;27;20008;-84
2024/04/17 02:18:42;;;;;;;11.55;3.35;;;;;;;5.56;100.00;100033.28;5199612;27;20017;-84
2024/04/17 02:21:08;;;;;;;7.40;2.58;;;;;;;5.51;100.00;100026.34;5197632;27;20009;-83
2024/04/17 02:23:36;;;;;;;7.72;3.15;;;;;;;5.49;100.00;100036.75;5153801;27;20769;-84
2024/04/17 02:26:02;;;;;;;7.78;3.30;;;;;;;5.45;100.00;100035.00;5172763;27;20460;-85
2024/04/17 02:28:30;;;;;;;8.23;3.33;;;;;;;5.45;100.00;100038.47;5196672;27;20009;-81
2024/04/17 02:30:55;;;;;;;6.60;2.60;;;;;;;5.47;100.00;100039.34;5197022;27;20013;-82
2024/04/17 02:33:23;;;;;;;8.75;2.90;;;;;;;5.50;100.00;100041.09;5192964;27;20028;-83
2024/04/17 02:35:52;;;;;;;12.48;2.95;;;;;;;5.48;100.00;100037.59;5176036;27;20484;-82
2024/04/17 02:38:20;;;;;;;6.38;3.15;;;;;;;5.41;100.00;100039.31;5173009;27;20017;-82
2024/04/17 02:40:45;;;;;;;8.82;3.08;;;;;;;5.41;100.00;100035.84;5172868;27;20373;-82
2024/04/17 02:43:13;;;;;;;6.70;2.63;;;;;;;5.28;100.00;100042.75;5171965;27;20012;-83
2024/04/17 02:45:40;;;;;;;8.60;2.85;;;;;;;5.22;100.00;100035.81;5189593;27;20012;-81
2024/04/17 02:48:09;;;;;;;8.90;4.10;;;;;;;5.13;100.00;100038.38;5144425;27;20020;-82
2024/04/17 02:50:41;;;;;;;8.68;2.95;;;;;;;5.06;100.00;100036.59;5195065;27;20031;-83
2024/04/17 02:53:10;;;;;;;11.07;2.70;;;;;;;5.01;100.00;100038.34;5172750;27;20356;-80
2024/04/17 02:55:35;;;;;;;10.98;3.65;;;;;;;4.94;100.00;100035.72;5170495;27;20400;-84
2024/04/17 02:58:03;;;;;;;8.63;5.20;;;;;;;4.90;100.00;100038.28;5170848;27;20032;-83
2024/04/17 03:00:29;;;;;;;5.13;2.63;;;;;;;4.84;100.00;100044.31;5173389;27;20052;-83
2024/04/17 03:02:58;;;;;;;6.07;2.85;;;;;;;4.80;100.00;100043.41;5195959;27;21555;-80
2024/04/17 03:05:26;;;;;;;10.65;2.97;;;;;;;4.76;100.00;100043.41;5193490;27;20012;-81
2024/04/17 03:07:54;;;;;;;17.10;3.92;;;;;;;4.75;100.00;100046.88;5193649;27;20030;-82
2024/04/17 03:10:20;;;;;;;8.30;2.92;;;;;;;4.70;100.00;100046.81;5193392;27;20425;-82
2024/04/17 03:12:48;;;;;;;4.45;2.20;;;;;;;4.68;100.00;100045.97;5159019;27;20023;-84
2024/04/17 03:15:14;;;;;;;11.68;2.92;;;;;;;4.64;100.00;100050.25;5187368;27;20481;-83
2024/04/17 03:17:42;;;;;;;9.18;2.38;;;;;;;4.62;100.00;100049.38;5172039;27;20027;-83
2024/04/17 03:20:10;;;;;;;15.82;4.10;;;;;;;4.59;100.00;100053.69;5172355;27;20468;-84
2024/04/17 03:22:38;;;;;;;4.82;2.38;;;;;;;4.52;100.00;100052.78;5145061;27;20496;-84
2024/04/17 03:25:04;;;;;;;12.85;3.22;;;;;;;4.51;100.00;100064.03;5189289;27;20020;-86
2024/04/17 03:27:32;;;;;;;3.75;2.20;;;;;;;4.56;100.00;100062.31;5149555;27;20361;-83
2024/04/17 03:29:58;;;;;;;7.30;2.85;;;;;;;4.61;100.00;100055.41;5169004;27;20020;-85
2024/04/17 03:32:26;;;;;;;8.13;3.60;;;;;;;4.71;100.00;100058.09;5171621;27;20008;-83
2024/04/17 03:34:55;;;;;;;5.15;2.20;;;;;;;4.75;100.00;100065.88;5173082;27;20052;-85
2024/04/17 03:37:23;;;;;;;7.63;2.15;;;;;;;4.79;100.00;100067.63;5194582;27;20080;-84
2024/04/17 03:39:48;;;;;;;4.93;1.67;;;;;;;4.76;100.00;100061.56;5146320;27;20116;-82
2024/04/17 03:42:16;;;;;;;9.60;2.38;;;;;;;4.74;100.00;100069.31;5171061;27;20068;-85
2024/04/17 03:44:45;;;;;;;8.25;2.50;;;;;;;4.69;100.00;100064.97;5192022;27;20019;-83
2024/04/17 03:47:13;;;;;;;10.93;2.47;;;;;;;4.62;100.00;100070.13;5148961;27;20004;-84
2024/04/17 03:49:45;;;;;;;8.85;2.00;;;;;;;4.60;100.00;100065.78;5150657;27;20357;-84
2024/04/17 03:52:11;;;;;;;8.90;2.00;;;;;;;4.57;100.00;100069.22;5202340;27;20423;-83
2024/04/17 03:54:39;;;;;;;7.55;1.92;;;;;;;4.56;100.00;100077.00;5148254;27;20012;-85
2024/04/17 03:57:05;;;;;;;4.18;2.22;;;;;;;4.54;100.00;100070.94;5200264;27;20012;-83
2024/04/17 03:59:41;;;;;;;12.15;3.33;;;;;;;4.50;100.00;100076.94;5206249;27;20017;-84
2024/04/17 04:02:07;;;;;;;11.18;2.38;;;;;;;4.48;100.00;100076.94;5175389;27;20024;-82
2024/04/17 04:04:35;;;;;;;7.53;2.22;;;;;;;4.50;100.00;100080.44;5198282;27;20512;-83
2024/04/17 04:07:01;;;;;;;9.13;2.90;;;;;;;4.55;100.00;100083.03;5174871;27;20701;-83
2024/04/17 04:09:29;;;;;;;8.73;2.50;;;;;;;4.56;100.00;100077.00;5177062;27;20012;-85
2024/04/17 04:11:56;;;;;;;5.78;2.53;;;;;;;4.57;100.00;100084.78;5176950;27;20020;-85
2024/04/17 04:14:26;;;;;;;4.07;1.40;;;;;;;4.56;100.00;100083.06;5173099;27;20028;-85
2024/04/17 04:16:51;;;;;;;8.13;2.53;;;;;;;4.55;100.00;100086.50;5224022;27;20012;-84
2024/04/17 04:19:22;;;;;;;13.45;2.53;;;;;;;4.53;100.00;100085.63;5198640;27;20020;-84
2024/04/17 04:21:47;;;;;;;5.38;2.10;;;;;;;4.59;100.00;100088.25;5199229;27;20016;-83
2024/04/17 04:24:18;;;;;;;4.00;1.88;;;;;;;4.67;100.00;100090.00;5147438;27;20064;-84
2024/04/17 04:26:43;;;;;;;6.05;2.15;;;;;;;4.69;100.00;100091.75;5174645;27;20008;-86
2024/04/17 04:29:12;;;;;;;5.55;2.50;;;;;;;4.78;100.00;100097.03;5204980;27;20009;-84
2024/04/17 04:31:37;;;;;;;8.82;2.08;;;;;;;4.85;100.00;100100.50;5191811;27;20061;-83
2024/04/17 04:34:07;;;;;;;5.45;1.98;;;;;;;4.91;100.00;100103.13;5198522;27;20054;-87
2024/04/17 04:36:32;;;;;;;8.98;1.83;;;;;;;4.93;100.00;100100.56;5195404;27;20042;-84
2024/04/17 04:39:00;;;;;;;7.53;2.25;;;;;;;4.92;100.00;100098.81;5172572;27;20112;-83
2024/04/17 04:41:26;;;;;;;13.30;2.20;;;;;;;4.89;100.00;100103.97;5176835;27;20484;-84
2024/04/17 04:43:54;;;;;;;5.80;2.22;;;;;;;4.87;100.00;100100.53;5174388;27;20017;-83
2024/04/17 04:46:23;;;;;;;5.85;2.10;;;;;;;4.84;100.00;100108.25;5148291;27;20036;-84
2024/04/17 04:48:53;;;;;;;5.45;2.10;;;;;;;4.79;100.00;100101.31;5173455;27;20023;-82
2024/04/17 04:51:21;;;;;;;6.97;2.45;;;;;;;4.77;100.00;100107.34;5149381;27;20024;-84
2024/04/17 04:53:49;;;;;;;9.82;2.45;;;;;;;4.73;100.00;100113.38;5180586;27;20009;-84
2024/04/17 04:56:16;;;;;;;6.38;1.75;;;;;;;4.68;100.00;100112.50;5197447;27;20112;-83
2024/04/17 04:58:44;;;;;;;6.03;2.00;;;;;;;4.66;100.00;100106.44;5146114;27;20027;-84
2024/04/17 05:01:10;;;;;;;7.32;2.55;;;;;;;4.69;100.00;100114.22;5173380;27;20012;-82
2024/04/17 05:03:50;;;;;;;8.25;3.28;;;;;;;4.74;100.00;100118.56;5207453;27;20034;-85
2024/04/17 05:06:16;;;;;;;6.60;2.55;;;;;;;4.79;100.00;100121.22;5182144;27;20059;-84
2024/04/17 05:08:44;;;;;;;2.83;1.90;;;;;;;4.83;100.00;100114.34;5197916;27;20023;-83
2024/04/17 05:11:11;;;;;;;3.80;1.83;;;;;;;4.86;100.00;100116.94;5172171;27;20024;-81
2024/04/17 05:13:40;;;;;;;7.53;2.05;;;;;;;4.92;100.00;100119.56;5151272;27;20026;-84
2024/04/17 05:16:06;;;;;;;4.28;2.33;;;;;;;4.94;100.00;100120.41;5197603;27;20024;-85
2024/04/17 05:18:34;;;;;;;12.00;2.83;;;;;;;4.94;100.00;100121.31;5169588;27;20775;-84
2024/04/17 05:21:03;;;;;;;10.85;2.30;;;;;;;4.97;100.00;100118.72;5146636;27;20024;-82
2024/04/17 05:23:34;;;;;;;7.88;3.15;;;;;;;5.02;100.00;100125.66;5198341;27;20088;-85
2024/04/17 05:26:00;;;;;;;11.05;3.97;;;;;;;5.06;100.00;100123.09;5195327;27;20013;-86
2024/04/17 05:28:28;;;;;;;14.50;3.17;;;;;;;5.18;100.00;100131.81;5177372;27;20013;-85
2024/04/17 05:31:00;;;;;;;10.18;2.58;;;;;;;5.22;100.00;100128.38;5202405;27;20027;-85
2024/04/17 05:33:29;;;;;;;17.05;3.80;;;;;;;5.30;100.00;100132.69;5169887;27;20414;-84
2024/04/17 05:35:55;;;;;;;9.50;3.78;;;;;;;5.37;100.00;100127.53;5173901;27;20016;-83
2024/04/17 05:38:24;;;;;;;12.52;3.70;;;;;;;5.49;100.00;100132.78;5202523;27;21103;-83
2024/04/17 05:40:49;;;;;;;8.68;2.83;;;;;;;5.56;100.00;100129.34;5200635;27;20009;-85
2024/04/17 05:43:35;;;;;;;18.08;4.00;;;;;;;5.70;100.00;100134.59;5211222;27;20508;-84
2024/04/17 05:46:01;;;;;;;18.85;3.42;;;;;;;5.78;100.00;100132.88;5202386;27;20605;-85
2024/04/17 05:48:29;;;;;;;20.75;3.35;;;;;;;5.84;100.00;100132.03;5152258;27;20092;-83
2024/04/17 05:50:55;;;;;;;13.50;2.13;;;;;;;5.83;100.00;100135.47;5177258;27;20056;-83
2024/04/17 05:53:25;;;;;;;9.38;1.50;;;;;;;5.84;100.00;100134.63;5176476;27;20029;-85
2024/04/17 05:55:52;;;;;;;5.05;1.85;;;;;;;5.91;100.00;100141.56;5152259;27;20424;-85
2024/04/17 05:58:22;;;;;;;7.53;2.20;;;;;;;5.99;100.00;100139.00;5214587;27;20011;-83
2024/04/17 06:00:49;;;;;;;8.57;2.22;;;;;;;6.03;100.00;100140.72;5201991;27;20376;-85
2024/04/17 06:03:21;;;;;;;9.27;2.67;;;;;;;6.02;100.00;100144.19;5208789;27;20159;-88
2024/04/17 06:05:54;;;;;;;14.25;2.03;;;;;;;5.99;100.00;100140.75;5176200;27;21342;-88
2024/04/17 06:08:22;;;;;;;4.95;1.85;;;;;;;6.00;100.00;100143.34;5161305;27;20073;-88
2024/04/17 06:10:51;;;;;;;4.07;2.55;;;;;;;5.84;100.00;100142.41;5209081;27;20100;-86
2024/04/17 06:13:19;;;;;;;5.50;1.55;;;;;;;5.92;100.00;100148.50;5175546;27;20465;-85
2024/04/17 06:15:47;;;;;;;7.07;2.35;;;;;;;6.00;100.00;100148.53;5153464;27;20012;-83
2024/04/17 06:18:15;;;;;;;5.28;1.60;;;;;;;6.04;100.00;100154.63;5200998;27;20020;-85
2024/04/17 06:20:41;;;;;;;4.55;2.30;;;;;;;6.12;100.00;100150.28;5173796;27;20012;-85
2024/04/17 06:23:10;;;;;;;5.60;3.50;;;;;;;6.26;100.00;100145.09;5201039;27;20037;-86
2024/04/17 06:25:41;;;;;;;6.03;2.72;;;;;;;6.46;100.00;100145.09;5176485;27;20458;-84
2024/04/17 06:28:09;;;;;;;7.55;2.17;;;;;;;6.63;100.00;100152.88;5201099;27;20429;-83
2024/04/17 06:30:34;;;;;;;3.10;1.65;;;;;;;6.62;100.00;100151.16;5167772;27;20024;-86
2024/04/17 06:33:10;;;;;;;5.95;1.45;;;;;;;6.72;100.00;100158.06;5143649;27;20008;-84
2024/04/17 06:35:36;;;;;;;12.15;3.05;;;;;;;6.85;100.00;100153.72;5145296;27;20027;-85
2024/04/17 06:38:04;;;;;;;5.15;1.80;;;;;;;6.91;100.00;100150.22;5193719;27;20119;-85
2024/04/17 06:40:30;;;;;;;10.82;2.05;;;;;;;7.05;100.00;100156.31;5146683;27;20031;-84
2024/04/17 06:43:00;;;;;;;10.23;4.43;;;;;;;7.18;100.00;100154.50;5196692;27;20012;-85
2024/04/17 06:45:25;;;;;;;7.95;2.13;;;;;;;7.33;100.00;100153.59;5145681;27;20025;-84
2024/04/17 06:47:54;;;;;;;6.38;3.45;;;;;;;8.32;100.00;100147.81;5197686;27;20023;-85
2024/04/17 06:50:20;;;;;;;4.50;2.55;;;;;;;11.61;83.11;100144.84;5169831;27;20012;-85
2024/04/17 06:52:49;;;;;;;9.65;2.22;;;;;;;12.06;73.77;100146.53;5171741;27;20020;-84
2024/04/17 06:55:14;;;;;;;12.70;2.55;;;;;;;10.94;77.14;100142.72;5172185;27;20017;-84
2024/04/17 06:57:42;;;;;;;10.52;2.40;;;;;;;9.40;84.09;100148.53;5193608;27;20019;-84
2024/04/17 07:00:09;;;;;;;10.07;2.00;;;;;;;9.87;86.63;100157.50;5174330;27;20012;-84
2024/04/17 07:02:38;;;;;;;7.45;2.17;;;;;;;8.78;90.34;100146.56;5194917;27;20096;-85
2024/04/17 07:05:04;;;;;;;4.55;1.85;;;;;;;8.14;95.19;100161.84;5197071;27;20023;-84
2024/04/17 07:07:32;;;;;;;6.80;2.83;;;;;;;8.17;97.62;100158.38;5171417;27;20465;-83
2024/04/17 07:09:57;;;;;;;11.98;4.68;;;;;;;7.93;98.28;100155.91;5193257;27;20055;-84
2024/04/17 07:12:26;;;;;;;4.90;2.60;;;;;;;7.95;99.00;100159.38;5175401;27;20465;-83
2024/04/17 07:14:51;;;;;;;7.57;2.30;;;;;;;9.81;92.22;100152.34;5177258;27;21768;-84
2024/04/17 07:17:20;;;;;;;9.27;3.05;;;;;;;11.95;73.94;100141.53;5195448;27;20016;-84
2024/04/17 07:19:46;;;;;;;12.05;6.25;;;;;;;10.53;77.45;100157.38;5179904;27;20020;-83
2024/04/17 07:22:15;;;;;;;10.82;2.38;;;;;;;9.70;82.45;100149.00;5179389;27;20092;-85
2024/04/17 07:24:40;;;;;;;10.57;3.72;;;;;;;9.35;86.43;100158.16;5200234;27;20031;-83
2024/04/17 07:27:09;;;;;;;8.20;1.70;;;;;;;9.30;86.67;100152.13;5175158;27;20012;-83
2024/04/17 07:29:36;;;;;;;9.63;3.13;;;;;;;9.57;85.85;100158.78;5199525;27;20032;-85
2024/04/17 07:32:07;;;;;;;13.73;6.00;;;;;;;10.43;83.89;100157.53;5168997;27;20040;-82
2024/04/17 07:34:32;;;;;;;4.60;2.47;;;;;;;12.55;71.03;100149.72;5195718;27;21639;-82
2024/04/17 07:37:04;;;;;;;4.25;1.88;;;;;;;13.74;66.71;100151.75;5178077;27;20008;-82
2024/04/17 07:39:31;;;;;;;3.88;2.03;;;;;;;12.42;69.98;100157.03;5194708;27;20097;-83
2024/04/17 07:42:00;;;;;;;5.63;1.50;;;;;;;15.10;61.79;100155.25;5174435;27;20057;-83
2024/04/17 07:44:25;;;;;;;5.28;1.70;;;;;;;15.31;56.64;100152.75;5170545;27;20013;-84
2024/04/17 07:46:53;;;;;;;4.22;1.75;;;;;;;16.80;52.30;100155.69;5145465;27;20780;-87
2024/04/17 07:49:21;;;;;;;10.20;2.20;;;;;;;17.17;50.97;100151.50;5193365;27;20020;-83
2024/04/17 07:51:50;;;;;;;8.32;1.92;;;;;;;14.48;56.23;100153.81;5172083;27;20020;-87
2024/04/17 07:54:15;;;;;;;3.65;1.70;;;;;;;13.28;61.30;100159.16;5174194;27;20016;-88
2024/04/17 07:56:44;;;;;;;5.68;1.63;;;;;;;14.11;60.16;100161.13;5200024;27;20027;-86
2024/04/17 07:59:09;;;;;;;6.32;1.75;;;;;;;16.68;53.09;100157.09;5146909;27;20378;-88
2024/04/17 08:01:37;;;;;;;6.40;1.83;;;;;;;15.63;55.15;100153.31;5202361;27;20012;-87
2024/04/17 08:04:06;;;;;;;5.57;1.42;;;;;;;13.37;59.50;100165.97;5175915;27;20012;-83
2024/04/17 08:06:35;;;;;;;5.60;2.63;;;;;;;12.26;63.68;100159.19;5200116;27;20722;-88
2024/04/17 08:09:00;;;;;;;8.82;2.05;;;;;;;11.72;66.67;100162.97;5179073;27;20035;-89
2024/04/17 08:11:37;;;;;;;4.68;1.85;;;;;;;10.79;69.99;100171.78;5171815;27;20095;-87
2024/04/17 08:14:07;;;;;;;4.07;2.17;;;;;;;10.33;73.75;100162.91;5169368;27;20065;-90
2024/04/17 08:16:32;;;;;;;7.47;2.03;;;;;;;10.09;75.65;100168.50;5175622;27;20451;-89
2024/04/17 08:19:00;;;;;;;3.47;1.73;;;;;;;9.93;76.68;100164.38;5150269;27;20028;-89
2024/04/17 08:21:28;;;;;;;5.63;1.23;;;;;;;10.02;77.36;100169.47;5204255;27;20020;-88
2024/04/17 08:23:57;;;;;;;4.95;1.30;;;;;;;12.24;69.64;100167.09;5176485;27;20024;-88
2024/04/17 08:26:23;;;;;;;4.50;1.05;;;;;;;12.70;65.81;100154.59;5178308;27;20013;-85
2024/04/17 08:28:51;;;;;;;3.50;1.10;;;;;;;12.79;63.36;100155.25;5206483;27;20019;-87
2024/04/17 08:31:17;;;;;;;7.63;2.58;;;;;;;12.02;65.87;100158.84;5197942;27;20017;-88
2024/04/17 08:33:45;;;;;;;8.40;1.90;;;;;;;11.49;67.41;100159.09;5198869;27;20016;-90
2024/04/17 08:36:11;;;;;;;4.63;1.17;;;;;;;11.02;68.72;100163.53;5175626;27;20024;-90
2024/04/17 08:38:41;;;;;;;7.65;2.95;;;;;;;10.75;71.11;100170.97;5181039;27;20012;-89
2024/04/17 08:41:07;;;;;;;6.32;2.05;;;;;;;10.78;70.99;100172.66;5208094;27;20013;-88
2024/04/17 08:43:40;;;;;;;4.88;1.50;;;;;;;10.50;71.96;100166.16;5208201;27;20016;-89
2024/04/17 08:46:06;;;;;;;7.68;2.03;;;;;;;10.91;71.47;100172.44;5199271;27;20036;-85
2024/04/17 08:48:35;;;;;;;8.43;2.38;;;;;;;11.42;67.80;100166.22;5180535;27;20061;-87
2024/04/17 08:51:02;;;;;;;6.60;1.98;;;;;;;11.95;67.14;100166.88;5179248;27;20416;-88
2024/04/17 08:53:32;;;;;;;7.28;1.80;;;;;;;13.40;59.92;100163.25;5202674;27;20019;-88
2024/04/17 08:55:58;;;;;;;2.38;1.20;;;;;;;13.92;54.88;100157.34;5200786;27;20019;-87
2024/04/17 08:58:26;;;;;;;4.25;1.13;;;;;;;14.81;52.60;100161.50;5177104;27;20004;-86
2024/04/17 09:00:52;;;;;;;2.75;1.33;;;;;;;15.45;50.92;100155.72;5172263;27;20017;-86
2024/04/17 09:03:26;;;;;;;4.22;1.20;;;;;;;16.44;49.28;100153.66;5200327;27;20020;-86
2024/04/17 09:05:55;;;;;;;3.83;1.30;;;;;;;16.81;47.77;100141.56;5209304;27;20020;-89
2024/04/17 09:08:30;;;;;;;4.47;1.48;;;;;;;17.10;47.28;100147.41;5745520;22;20023;-86
2024/04/17 09:10:58;;;;;;;4.88;1.35;;;;;;;15.44;50.66;100159.28;5738719;22;20015;-86
2024/04/17 09:13:27;;;;;;;4.90;1.85;;;;;;;13.92;53.14;100152.94;5219112;27;20026;-88
2024/04/17 09:15:54;;;;;;;8.43;1.95;;;;;;;12.99;55.48;100157.34;5190895;27;20147;-88
2024/04/17 09:18:32;;;;;;;4.50;1.67;;;;;;;12.95;55.34;100151.31;5193499;27;20070;-89
2024/04/17 09:20:57;;;;;;;2.85;0.82;;;;;;;13.97;51.99;100155.44;5216921;27;20008;-87
2024/04/17 09:23:26;;;;;;;5.10;1.65;;;;;;;15.02;50.57;100152.03;5176527;27;20087;-87
2024/04/17 09:25:54;;;;;;;4.30;1.30;;;;;;;16.32;48.36;100147.13;5163290;27;20054;-89
2024/04/17 09:28:22;;;;;;;4.15;0.82;;;;;;;17.59;44.92;100141.69;5183176;27;20011;-89
2024/04/17 09:30:48;;;;;;;3.83;1.15;;;;;;;17.90;43.46;100140.22;5214815;27;20055;-88
2024/04/17 09:33:18;;;;;;;6.47;1.48;;;;;;;17.86;42.57;100150.97;5191469;27;20019;-86
2024/04/17 09:35:43;;;;;;;2.15;0.90;;;;;;;16.59;43.85;100141.63;5191846;27;19999;-88
2024/04/17 09:38:18;;;;;;;0.80;0.80;;;;;;;14.49;45.49;100147.66;5164044;27;20004;-89
2024/04/17 09:40:47;;;;;;;2.00;0.50;;;;;;;15.24;43.62;100148.59;5188990;27;20003;-88
2024/04/17 09:43:29;;;;;;;4.55;1.10;;;;;;;14.78;43.75;100146.66;5215169;27;20558;-87
2024/04/17 09:46:26;;;;;;;1.08;0.50;;;;;;;15.54;43.05;100143.97;5192468;27;20015;-89
2024/04/17 09:49:00;;;;;;;3.28;0.45;;;;;;;15.04;42.78;100151.06;5180170;27;20039;-86
2024/04/17 09:51:26;;;;;;;;;;;;;;;14.36;43.21;100149.81;5189454;27;20019;-87
2024/04/17 09:54:04;;;;;;;2.42;0.63;;;;;;;13.28;46.30;100148.66;5191986;27;19928;-87
2024/04/17 09:56:35;;;;;;;2.60;1.00;;;;;;;13.08;47.94;100147.44;5239052;27;20012;-87
2024/04/17 09:59:05;;;;;;;2.58;0.50;;;;;;;12.92;47.55;100143.53;5214210;27;20015;-89
2024/04/17 10:01:31;;;;;;;3.20;1.00;;;;;;;12.89;47.83;100144.47;5188306;27;20100;-89
2024/04/17 10:04:07;;;;;;;4.13;1.40;;;;;;;12.78;48.50;100143.88;5193804;27;20031;-89
2024/04/17 10:06:37;;;;;;;2.75;0.80;;;;;;;14.44;47.41;100142.53;5165726;27;21165;-87
2024/04/17 10:09:10;;;;;;;2.10;0.82;;;;;;;15.20;46.81;100137.28;5161842;27;20691;-86
2024/04/17 10:11:39;;;;;;;4.30;1.20;;;;;;;15.47;46.35;100143.31;5219302;27;20008;-88
2024/04/17 10:14:12;;;;;;;1.70;0.80;;;;;;;14.67;46.05;100140.94;5239936;27;20030;-89
2024/04/17 10:16:39;;;;;;;1.75;1.42;;;;;;;14.34;47.69;100141.09;5213917;27;20071;-88
2024/04/17 10:19:09;;;;;;;2.10;1.27;;;;;;;14.30;48.59;100144.75;5191141;27;20031;-87
2024/04/17 10:21:38;;;;;;;2.00;1.10;;;;;;;14.65;48.22;100141.00;5188464;27;20061;-87
2024/04/17 10:24:14;;;;;;;2.60;0.82;;;;;;;14.05;48.77;100145.53;5225414;27;20015;-85
2024/04/17 10:26:54;;;;;;;1.23;0.85;;;;;;;13.48;50.21;100142.00;5166145;27;20016;-86
2024/04/17 10:29:31;;;;;;;4.35;1.83;;;;;;;13.41;51.10;100143.94;5239562;27;20011;-87
2024/04/17 10:32:05;;;;;;;1.13;0.88;;;;;;;13.34;51.08;100147.63;5184013;27;20040;-89
2024/04/17 10:34:55;;;;;;;3.80;1.15;;;;;;;12.79;52.05;100147.34;5220309;27;20019;-90
2024/04/17 10:37:22;;;;;;;4.72;0.90;;;;;;;11.70;54.29;100151.66;5188727;27;20020;-88
2024/04/17 10:39:52;;;;;;;5.13;1.10;;;;;;;11.32;54.39;100155.97;5187758;27;20015;-86
2024/04/17 10:42:22;;;;;;;2.88;0.90;;;;;;;10.82;54.66;100156.00;5208536;27;20008;-86
2024/04/17 10:44:53;;;;;;;0.95;0.73;;;;;;;10.61;55.17;100157.25;5193304;27;20023;-87
2024/04/17 10:47:25;;;;;;;3.00;1.38;;;;;;;10.49;55.33;100163.56;5217395;27;20020;-88
2024/04/17 10:50:00;;;;;;;1.27;1.00;;;;;;;10.40;55.79;100164.56;5193302;27;20022;-90
2024/04/17 10:52:29;;;;;;;4.18;1.10;;;;;;;10.43;55.91;100165.38;5189239;27;20023;-90
2024/04/17 10:55:02;;;;;;;2.95;0.57;;;;;;;10.50;56.62;100165.28;5180913;27;20026;-88
2024/04/17 10:57:32;;;;;;;2.13;0.57;;;;;;;10.68;55.93;100169.38;5196795;27;20016;-88
2024/04/17 11:00:06;;;;;;;2.17;0.70;;;;;;;10.39;56.23;100173.31;5214305;27;20015;-86
2024/04/17 11:02:32;;;;;;;2.78;1.20;;;;;;;10.50;55.69;100160.91;5234327;27;20142;-86
2024/04/17 11:05:05;;;;;;;2.72;1.15;;;;;;;10.75;53.19;100168.34;5227178;27;20022;-88
2024/04/17 11:07:34;;;;;;;6.43;1.02;;;;;;;10.78;54.26;100162.19;5187588;27;20023;-85
2024/04/17 11:10:03;;;;;;;3.30;1.05;;;;;;;11.27;55.36;100170.91;5189300;27;20008;-85
2024/04/17 11:12:29;;;;;;;4.32;1.52;;;;;;;12.21;54.30;100168.91;5217667;27;20090;-83
2024/04/17 11:15:02;;;;;;;5.07;1.60;;;;;;;12.73;52.09;100167.63;5194860;27;20020;-86
2024/04/17 11:17:28;;;;;;;6.95;1.38;;;;;;;13.17;51.26;100148.97;5240186;27;20012;-86
2024/04/17 11:19:57;;;;;;;4.10;1.25;;;;;;;12.87;50.73;100151.50;5182105;27;20024;-85
2024/04/17 11:22:24;;;;;;;1.05;0.90;;;;;;;12.75;50.10;100146.59;5183514;27;20039;-83
2024/04/17 11:24:57;;;;;;;1.95;0.60;;;;;;;12.62;49.78;100150.41;5193527;27;20019;-83
2024/04/17 11:27:23;;;;;;;;;;;;;;;13.04;47.76;100151.06;5188255;27;20008;-83
2024/04/17 11:29:53;;;;;;;2.65;0.93;;;;;;;13.43;46.72;100157.03;5195605;27;19938;-84
2024/04/17 11:32:19;;;;;;;6.47;1.33;;;;;;;13.29;46.45;100154.78;5190003;27;20008;-83